Overton, Nevada Weather observations

Data are for observation ending at time listed.
 Day   Time    Ave.   Ave.  Ave.  Vector   Max.   Stn.    Total    Solar   Ave.  
  of    of     Air    Rel.  Wind   Wind    Wind   Baro.  Precip.   Rad.    Soil  
Year   Day     Temp.  Hum.  Speed  Dir.    Gust   Pres.                    Temp. 
2015   (PST)    F      %     mph   deg.    mph     mb.     in.     W/m2     F   
------------------------------------------------------------------------------
 245    3:10   75.6    49    2.3   329      3.4   965.7    0.00       0    87.2
 245    3:20   74.9    50    3.0   330      3.7   965.7    0.00       0    87.0
 245    3:30   74.7    50    2.1   325      3.1   965.7    0.00       0    86.8
 245    3:40   74.9    50    1.6   325      3.6   965.7    0.00       0    86.7
 245    3:50   75.3    48    2.6   320      4.1   965.7    0.00       0    86.5
 245    4:00   75.5    48    2.3   314      4.0   965.8    0.00       0    86.3
 245    4:10   75.3    48    1.3   343      3.1   965.8    0.00       0    86.2
 245    4:20   75.5    47    2.4   303      4.1   965.9    0.00       0    86.0
 245    4:30   75.9    47    1.7   346      2.4   965.9    0.00       0    85.9
 245    4:40   74.7    49    2.2   320      3.9   966.1    0.00       0    85.8
 245    4:50   74.3    50    2.1   309      3.6   966.1    0.00       0    85.6
 245    5:00   74.9    48    1.5   298      2.6   966.3    0.00       0    85.5
 245    5:10   74.6    49    1.0   304      2.3   966.4    0.00       1    85.4
 245    5:20   74.7    49    0.6   281      2.2   966.4    0.00       6    85.2
 245    5:30   74.4    49    0.9   302      2.0   966.5    0.00      13    85.2
 245    5:40   74.0    51    1.8   322      2.5   966.7    0.00      29    85.1
 245    5:50   75.1    48    1.1   304      3.1   966.8    0.00      55    85.2
 245    6:00   76.8    46    1.1   287      2.8   967.0    0.00      85    85.5
 245    6:10   78.0    45    0.6   308      2.0   967.3    0.00     112    86.1
 245    6:20   79.2    44    1.1   318      1.8   967.6    0.00     140    86.8
 245    6:30   79.9    44    0.9   322      1.8   967.9    0.00     165    87.5
 245    6:40   82.1    41    0.3   325      1.2   968.0    0.00     201    88.4
 245    6:50   86.7    36    0.7    77      2.9   968.3    0.00     233    89.4
 245    7:00   87.5    38    1.6    50      2.9   968.4    0.00     234    90.4
 245    7:10   88.7    36    1.5    51      4.2   968.5    0.00     294    91.5
 245    7:20   90.3    33    2.9   124      9.3   968.7    0.00     325    92.6
 245    7:30   90.9    31    5.1   127     11.5   968.9    0.00     332    93.6
 245    7:40   91.6    30    4.8   120      9.8   969.1    0.00     384    94.6
 245    7:50   92.0    28    6.8   137     12.5   969.2    0.00      82    95.6
 245    8:00   92.6    26    7.1   154     13.9   969.2    0.00      29    96.5
 245    8:10   92.9    24    9.3   169     17.9   969.2    0.00      39    97.4
 245    8:20   92.5    24   10.9   166     18.0   969.3    0.00      72    98.2
 245    8:30   93.2    22    8.7   166     14.5   969.4    0.00     450    98.9
 245    8:40   93.6    22    7.6   167     15.3   969.5    0.00     220    99.7
 245    8:50   94.1    21    7.5   161     17.2   969.5    0.00     106    100.5
 245    9:00   94.2    20    9.6   162     16.3   969.6    0.00     473    101.3
 245    9:10   94.5    19    9.4   161     18.4   969.6    0.00     602    102.0
 245    9:20   94.8    18    9.2   160     18.2   969.6    0.00     637    102.6
 245    9:30   95.4    16   11.8   171     20.5   969.6    0.00     469    103.3
 245    9:40   95.7    16    9.9   158     17.8   969.6    0.00     184    103.9
 245    9:50   96.1    15    9.0   151     15.8   969.6    0.00     681    104.5
 245   10:00   96.3    14   10.5   157     18.5   969.6    0.00     730    105.1
 245   10:10   96.3    14   12.1   176     22.4   969.5    0.00     724    105.6
 245   10:20   96.4    14   10.2   170     17.9   969.4    0.00     751    105.9
 245   10:30   97.1    14    9.9   175     17.6   969.3    0.00     748    106.2
 245   10:40   97.2    14   10.2   174     19.3   969.2    0.00     693    106.5
 245   10:50   97.3    14   10.4   170     17.5   969.1    0.00     782    106.5
 245   11:00   98.0    14    8.2   171     15.7   969.0    0.00     787    106.4
 245   11:10   98.1    14    6.9   168     17.1   968.7    0.00     712    105.7
 245   11:20   97.6    14    7.8   161     15.3   968.7    0.00     512    104.9
 245   11:30   97.7    14    6.7   169     12.3   968.6    0.00     728    104.3
 245   11:40   98.9    14    8.2   162     14.0   968.3    0.00     817    103.8
 245   11:50   98.5    14    9.9   174     17.0   968.2    0.00     656    103.3
 245   12:00   99.1    14    8.3   168     17.6   968.1    0.00     819    102.7
 245   12:10   99.0    14    8.8   174     18.8   967.9    0.00     668    102.3
 245   12:20   99.6    14   10.3   171     17.5   967.9    0.00     826    102.0
 245   12:30  100.1    14    7.4   159     15.9   967.6    0.00     810    101.7
 245   12:40  100.8    14   10.6   174     17.6   967.5    0.00     764    101.3
 245   12:50  100.5    14    8.8   170     18.0   967.4    0.00     740    101.0
 245   13:00  101.1    14    8.2   154     17.5   967.3    0.00     658    100.8
 245   13:10  101.5    13    9.3   146     18.5   967.1    0.00     672    100.7
 245   13:20  101.2    13   10.3   153     20.8   967.0    0.00     721    100.6
 245   13:30  100.8    13   11.3   161     21.0   966.8    0.00     752    100.6
 245   13:40  101.6    13    8.9   139     20.2   966.7    0.00     735    100.6
 245   13:50  101.8    13    7.8   147     15.1   966.7    0.00     706    100.6
 245   14:00  101.6    13    8.8   166     17.4   966.5    0.00     669    100.6
 245   14:10  102.1    13   10.5   161     20.4   966.4    0.00     601    100.7
 245   14:20  101.5    13   11.5   167     19.9   966.3    0.00     358    101.0
 245   14:30  101.6    12   12.1   165     21.4   966.1    0.00     549    101.2
 245   14:40  101.5    12   10.5   168     20.2   966.0    0.00     422    101.4
 245   14:50  101.5    12    9.2   146     19.5   965.9    0.00     284    101.6
 245   15:00  101.4    12   12.9   164     24.8   965.8    0.00     524    101.9
 245   15:10  101.0    12   11.0   167     22.6   965.6    0.00     329    101.9
 245   15:20  100.2    12   12.2   167     21.1   965.5    0.00     219    102.0
 245   15:30   99.6    12   12.1   163     20.3   965.3    0.00     196    101.9
 245   15:40   99.4    12   11.8   158     21.5   965.2    0.00     206    101.7
 245   15:50   99.2    12   13.6   162     23.9   965.1    0.00     179    101.4
 245   16:00   99.3    11   11.9   163     21.7   965.0    0.00     201    101.2
 245   16:10   99.3    11   11.5   164     19.6   964.9    0.00     173    101.0
 245   16:20   99.5    11   11.3   162     19.9   964.9    0.00     248    100.7
 245   16:30  100.1    11   11.1   169     23.5   964.9    0.00     313    100.5
 245   16:40   99.5    11   11.6   169     21.0   964.9    0.00     165    100.5
 245   16:50   99.2    11    9.5   155     18.2   964.8    0.00     102    100.4
 245   17:00   98.9    12   11.1   164     19.9   964.7    0.00     124    100.2
 245   17:10   98.9    12   11.1   168     18.1   964.6    0.00     136    100.0
 245   17:20   98.8    11   11.8   173     19.1   964.5    0.00     136    99.8
 245   17:30   98.3    11   11.1   170     18.7   964.5    0.00      77    99.6
 245   17:40   98.0    12    9.2   171     18.0   964.5    0.00      46    99.3
 245   17:50   97.8    12   10.7   168     21.5   964.3    0.00      29    99.0
 245   18:00   97.4    12   10.1   168     18.3   964.3    0.00      18    98.7
 245   18:10   97.2    12   10.9   175     18.1   964.2    0.00      10    98.4
 245   18:20   97.0    11   11.2   176     17.8   964.2    0.00       6    98.1
 245   18:30   96.8    11   11.7   178     19.1   964.2    0.00       0    97.8
 245   18:40   96.5    11    9.2   173     15.3   964.3    0.00       0    97.4
 245   18:50   96.2    11    9.8   176     17.7   964.3    0.00       0    97.1
 245   19:00   96.3    11   11.2   176     18.4   964.3    0.00       0    96.8
 245   19:10   96.3    11   11.5   177     19.4   964.4    0.00       0    96.6
 245   19:20   95.9    12    9.0   170     15.2   964.6    0.00       0    96.4
 245   19:30   95.8    12    9.4   161     17.2   964.6    0.00       0    96.1
 245   19:40   95.4    12    8.1   164     13.2   964.7    0.00       0    95.8
 245   19:50   95.1    12    7.6   153     17.5   964.8    0.00       0    95.6
 245   20:00   93.6    14    4.7   129     12.9   964.9    0.00       0    95.3
 245   20:10   92.2    14    4.5   138     11.0   965.0    0.00       0    95.0
 245   20:20   93.9    13    6.9   156     13.7   964.9    0.00       0    94.6
 245   20:30   94.4    13    7.4   157     14.7   965.0    0.00       0    94.4
 245   20:40   92.2    16    4.3   132     13.4   965.1    0.00       0    94.2
 245   20:50   89.9    19    3.7   135      6.9   965.2    0.00       0    94.0
 245   21:00   89.6    20    2.7   124      7.7   965.1    0.00       0    93.7
 245   21:10   88.3    23    3.1   121      8.0   965.1    0.00       0    93.4
 245   21:20   87.6    24    2.6   127      6.8   965.0    0.00       0    93.1
 245   21:30   87.3    25    3.1   127      7.5   964.9    0.00       0    92.9
 245   21:40   87.0    25    3.1   129      6.8   964.9    0.00       0    92.6
 245   21:50   86.9    25    3.0   131      6.4   964.9    0.00       0    92.4
 245   22:00   86.8    26    3.0   132      6.6   964.8    0.00       0    92.2
 245   22:10   87.3    25    4.1   133      8.5   964.8    0.00       0    92.0
 245   22:20   88.5    23    5.6   156     15.6   964.8    0.00       0    91.8
 245   22:30   88.3    24    4.6   138      9.2   964.9    0.00       0    91.6
 245   22:40   87.7    25    5.0   131      9.3   965.0    0.00       0    91.4
 245   22:50   87.6    25    4.1   124     10.4   965.0    0.00       0    91.2
 245   23:00   87.3    26    3.9   124     10.0   965.0    0.00       0    91.1
 245   23:10   86.6    27    4.3   139      9.9   965.0    0.00       0    90.9
 245   23:20   86.0    28    3.7   131      8.0   965.0    0.00       0    90.7
 245   23:30   86.0    27    4.1   127      8.8   964.9    0.00       0    90.5
 245   23:40   85.8    27    4.5   129      9.5   964.8    0.00       0    90.3
 245   23:50   85.4    28    4.7   131      9.1   964.8    0.00       0    90.1
 246    0:00   85.1    28    4.1   128      9.0   964.8    0.00       0    89.9
 246    0:10   84.7    29    4.0   132      8.8   964.7    0.00       0    89.7
 246    0:20   84.1    29    4.3   133      7.7   964.5    0.00       0    89.6
 246    0:30   83.7    28    4.2   138      8.7   964.4    0.00       0    89.3
 246    0:40   83.8    26    3.9   140      7.9   964.3    0.00       0    89.1
 246    0:50   84.1    26    4.0   142      8.3   964.3    0.00       0    88.9
 246    1:00   84.0    26    3.6   136      7.9   964.3    0.00       0    88.8
 246    1:10   83.4    27    2.9   137      6.7   964.2    0.00       0    88.6
 246    1:20   82.8    29    2.9   147      5.6   964.2    0.00       0    88.4
 246    1:30   82.7    28    1.9   132      4.2   964.2    0.00       0    88.3
 246    1:40   82.0    30    0.3   161      2.4   964.2    0.00       0    88.2
 246    1:50   79.2    33    0.8   338      2.2   964.3    0.00       0    88.1
 246    2:00   78.3    35    0.5    20      1.7   964.3    0.00       0    87.9
 246    2:10   77.5    37    1.8    66      3.2   964.3    0.00       0    87.8
 246    2:20   78.7    36    1.5    89      3.4   964.3    0.00       0    87.6
 246    2:30   79.3    35    0.7   121      2.6   964.3    0.00       0    87.5
 246    2:40   80.3    33    1.4   119      3.7   964.4    0.00       0    87.4
 246    2:50   80.8    32    2.3   118      4.4   964.4    0.00       0    87.3
 246    3:00   80.2    33    1.7    92      3.4   964.4    0.00       0    87.1

Return to Overton, Nevada graphs page.


Western Regional Climate Center,wrcc@dri.edu